sensor_id;sensor_type;location;lat;lon;timestamp;pressure;altitude;pressure_sealevel;temperature;humidity
50774;BME280;36745;48.544;8.918;2023-12-20T00:00:52;97385.09;;;6.00;92.19
50774;BME280;36745;48.544;8.918;2023-12-20T00:04:12;97390.53;;;6.03;92.48
50774;BME280;36745;48.544;8.918;2023-12-20T00:07:32;97385.88;;;6.00;92.60
50774;BME280;36745;48.544;8.918;2023-12-20T00:10:52;97380.31;;;6.07;92.36
50774;BME280;36745;48.544;8.918;2023-12-20T00:14:12;97374.66;;;5.91;92.81
50774;BME280;36745;48.544;8.918;2023-12-20T00:17:31;97358.50;;;6.00;92.69
50774;BME280;36745;48.544;8.918;2023-12-20T00:20:51;97364.38;;;6.02;93.00
50774;BME280;36745;48.544;8.918;2023-12-20T00:24:11;97377.22;;;6.05;92.68
50774;BME280;36745;48.544;8.918;2023-12-20T00:27:30;97360.91;;;5.98;92.99
50774;BME280;36745;48.544;8.918;2023-12-20T00:30:50;97366.19;;;6.12;93.04
50774;BME280;36745;48.544;8.918;2023-12-20T00:34:10;97356.06;;;6.09;92.85
50774;BME280;36745;48.544;8.918;2023-12-20T00:37:30;97346.72;;;6.07;92.86
50774;BME280;36745;48.544;8.918;2023-12-20T00:40:50;97354.59;;;6.01;93.21
50774;BME280;36745;48.544;8.918;2023-12-20T00:44:09;97340.50;;;6.03;93.63
50774;BME280;36745;48.544;8.918;2023-12-20T00:47:29;97335.63;;;6.17;93.25
50774;BME280;36745;48.544;8.918;2023-12-20T00:50:49;97332.44;;;6.22;93.40
50774;BME280;36745;48.544;8.918;2023-12-20T00:54:09;97337.19;;;6.18;93.16
50774;BME280;36745;48.544;8.918;2023-12-20T00:57:29;97348.13;;;6.18;93.93
50774;BME280;36745;48.544;8.918;2023-12-20T01:00:48;97347.41;;;6.14;94.13
50774;BME280;36745;48.544;8.918;2023-12-20T01:04:08;97347.69;;;6.23;94.29
50774;BME280;36745;48.544;8.918;2023-12-20T01:07:28;97356.16;;;6.32;94.43
50774;BME280;36745;48.544;8.918;2023-12-20T01:10:48;97366.00;;;6.26;94.74
50774;BME280;36745;48.544;8.918;2023-12-20T01:14:07;97364.56;;;6.18;95.41
50774;BME280;36745;48.544;8.918;2023-12-20T01:17:27;97365.47;;;6.08;96.46
50774;BME280;36745;48.544;8.918;2023-12-20T01:20:47;97365.19;;;5.99;96.91
50774;BME280;36745;48.544;8.918;2023-12-20T01:24:07;97369.19;;;5.91;97.43
50774;BME280;36745;48.544;8.918;2023-12-20T01:27:26;97360.28;;;5.80;98.32
50774;BME280;36745;48.544;8.918;2023-12-20T01:30:46;97356.31;;;5.84;98.78
50774;BME280;36745;48.544;8.918;2023-12-20T01:34:06;97363.25;;;5.96;99.25
50774;BME280;36745;48.544;8.918;2023-12-20T01:37:26;97370.44;;;5.79;99.77
50774;BME280;36745;48.544;8.918;2023-12-20T01:40:46;97369.56;;;5.93;99.81
50774;BME280;36745;48.544;8.918;2023-12-20T01:44:06;97369.47;;;6.00;99.26
50774;BME280;36745;48.544;8.918;2023-12-20T01:47:25;97374.53;;;6.02;99.54
50774;BME280;36745;48.544;8.918;2023-12-20T01:50:46;97375.59;;;6.11;98.86
50774;BME280;36745;48.544;8.918;2023-12-20T01:54:06;97373.69;;;6.08;98.97
50774;BME280;36745;48.544;8.918;2023-12-20T01:57:27;97374.97;;;5.97;100.00
50774;BME280;36745;48.544;8.918;2023-12-20T02:00:47;97371.78;;;6.02;100.00
50774;BME280;36745;48.544;8.918;2023-12-20T02:04:07;97353.03;;;6.00;100.00
50774;BME280;36745;48.544;8.918;2023-12-20T02:07:27;97353.16;;;5.93;100.00
50774;BME280;36745;48.544;8.918;2023-12-20T02:10:48;97347.13;;;6.05;100.00
50774;BME280;36745;48.544;8.918;2023-12-20T02:14:08;97358.56;;;5.97;100.00
50774;BME280;36745;48.544;8.918;2023-12-20T02:17:29;97351.84;;;6.01;100.00
50774;BME280;36745;48.544;8.918;2023-12-20T02:20:49;97347.56;;;6.00;100.00
50774;BME280;36745;48.544;8.918;2023-12-20T02:24:09;97350.31;;;6.00;100.00
50774;BME280;36745;48.544;8.918;2023-12-20T02:27:29;97356.19;;;5.99;100.00
50774;BME280;36745;48.544;8.918;2023-12-20T02:30:49;97355.44;;;5.98;100.00
50774;BME280;36745;48.544;8.918;2023-12-20T02:34:08;97351.09;;;6.01;100.00
50774;BME280;36745;48.544;8.918;2023-12-20T02:37:28;97346.03;;;5.99;100.00
50774;BME280;36745;48.544;8.918;2023-12-20T02:40:48;97344.09;;;5.96;100.00
50774;BME280;36745;48.544;8.918;2023-12-20T02:44:08;97345.28;;;5.95;100.00
50774;BME280;36745;48.544;8.918;2023-12-20T02:47:28;97345.38;;;5.88;100.00
50774;BME280;36745;48.544;8.918;2023-12-20T02:50:49;97343.72;;;5.94;100.00
50774;BME280;36745;48.544;8.918;2023-12-20T02:54:09;97344.56;;;5.91;100.00
50774;BME280;36745;48.544;8.918;2023-12-20T02:57:29;97348.88;;;5.85;100.00
50774;BME280;36745;48.544;8.918;2023-12-20T03:00:48;97350.56;;;5.75;100.00
50774;BME280;36745;48.544;8.918;2023-12-20T03:04:08;97354.00;;;5.83;100.00
50774;BME280;36745;48.544;8.918;2023-12-20T03:07:28;97354.81;;;5.80;100.00
50774;BME280;36745;48.544;8.918;2023-12-20T03:10:48;97357.16;;;5.78;100.00
50774;BME280;36745;48.544;8.918;2023-12-20T03:14:08;97352.06;;;5.80;100.00
50774;BME280;36745;48.544;8.918;2023-12-20T03:17:27;97359.06;;;5.88;100.00
50774;BME280;36745;48.544;8.918;2023-12-20T03:20:47;97358.63;;;5.93;100.00
50774;BME280;36745;48.544;8.918;2023-12-20T03:24:09;97357.34;;;6.01;100.00
50774;BME280;36745;48.544;8.918;2023-12-20T03:27:29;97369.56;;;5.93;100.00
50774;BME280;36745;48.544;8.918;2023-12-20T03:30:49;97374.19;;;5.96;100.00
50774;BME280;36745;48.544;8.918;2023-12-20T03:34:08;97371.91;;;5.91;100.00
50774;BME280;36745;48.544;8.918;2023-12-20T03:37:28;97379.38;;;5.83;100.00
50774;BME280;36745;48.544;8.918;2023-12-20T03:40:48;97384.53;;;5.78;100.00
50774;BME280;36745;48.544;8.918;2023-12-20T03:44:07;97391.97;;;5.77;100.00
50774;BME280;36745;48.544;8.918;2023-12-20T03:47:27;97395.47;;;5.78;100.00
50774;BME280;36745;48.544;8.918;2023-12-20T03:50:47;97401.03;;;5.71;100.00
50774;BME280;36745;48.544;8.918;2023-12-20T03:54:07;97396.34;;;5.68;100.00
50774;BME280;36745;48.544;8.918;2023-12-20T03:57:27;97389.41;;;5.60;100.00
50774;BME280;36745;48.544;8.918;2023-12-20T04:00:47;97381.66;;;5.51;100.00
50774;BME280;36745;48.544;8.918;2023-12-20T04:04:07;97394.91;;;5.56;100.00
50774;BME280;36745;48.544;8.918;2023-12-20T04:07:26;97400.81;;;5.51;100.00
50774;BME280;36745;48.544;8.918;2023-12-20T04:10:46;97407.50;;;5.46;100.00
50774;BME280;36745;48.544;8.918;2023-12-20T04:14:06;97405.19;;;5.45;100.00
50774;BME280;36745;48.544;8.918;2023-12-20T04:17:26;97403.59;;;5.47;100.00
50774;BME280;36745;48.544;8.918;2023-12-20T04:20:46;97408.31;;;5.43;100.00
50774;BME280;36745;48.544;8.918;2023-12-20T04:24:06;97409.88;;;5.44;100.00
50774;BME280;36745;48.544;8.918;2023-12-20T04:27:26;97409.06;;;5.47;100.00
50774;BME280;36745;48.544;8.918;2023-12-20T04:30:45;97406.69;;;5.49;100.00
50774;BME280;36745;48.544;8.918;2023-12-20T04:34:05;97406.38;;;5.40;100.00
50774;BME280;36745;48.544;8.918;2023-12-20T04:37:25;97407.19;;;5.37;100.00
50774;BME280;36745;48.544;8.918;2023-12-20T04:40:45;97406.00;;;5.38;100.00
50774;BME280;36745;48.544;8.918;2023-12-20T04:44:06;97408.78;;;5.31;100.00
50774;BME280;36745;48.544;8.918;2023-12-20T04:47:26;97408.75;;;5.35;100.00
50774;BME280;36745;48.544;8.918;2023-12-20T04:50:45;97419.34;;;5.29;100.00
50774;BME280;36745;48.544;8.918;2023-12-20T04:54:05;97414.59;;;5.37;100.00
50774;BME280;36745;48.544;8.918;2023-12-20T04:57:25;97432.22;;;5.32;100.00
50774;BME280;36745;48.544;8.918;2023-12-20T05:00:45;97434.59;;;5.27;100.00
50774;BME280;36745;48.544;8.918;2023-12-20T05:04:05;97432.66;;;5.27;100.00
50774;BME280;36745;48.544;8.918;2023-12-20T05:07:25;97431.13;;;5.19;100.00
50774;BME280;36745;48.544;8.918;2023-12-20T05:10:45;97444.03;;;5.19;100.00
50774;BME280;36745;48.544;8.918;2023-12-20T05:14:04;97441.72;;;5.17;100.00
50774;BME280;36745;48.544;8.918;2023-12-20T05:17:24;97448.34;;;5.16;100.00
50774;BME280;36745;48.544;8.918;2023-12-20T05:20:44;97458.53;;;5.12;100.00
50774;BME280;36745;48.544;8.918;2023-12-20T05:24:04;97457.75;;;5.08;100.00
50774;BME280;36745;48.544;8.918;2023-12-20T05:27:24;97465.16;;;5.15;100.00
50774;BME280;36745;48.544;8.918;2023-12-20T05:30:44;97474.03;;;5.26;100.00
50774;BME280;36745;48.544;8.918;2023-12-20T05:34:03;97464.31;;;5.21;100.00
50774;BME280;36745;48.544;8.918;2023-12-20T05:37:23;97473.34;;;5.18;100.00
50774;BME280;36745;48.544;8.918;2023-12-20T05:40:43;97473.69;;;5.20;100.00
50774;BME280;36745;48.544;8.918;2023-12-20T05:44:03;97485.38;;;5.28;100.00
50774;BME280;36745;48.544;8.918;2023-12-20T05:47:22;97477.91;;;5.32;100.00
50774;BME280;36745;48.544;8.918;2023-12-20T05:50:42;97484.16;;;5.32;100.00
50774;BME280;36745;48.544;8.918;2023-12-20T05:54:02;97480.59;;;5.35;100.00
50774;BME280;36745;48.544;8.918;2023-12-20T05:57:21;97487.69;;;5.29;100.00
50774;BME280;36745;48.544;8.918;2023-12-20T06:00:42;97490.06;;;5.27;100.00
50774;BME280;36745;48.544;8.918;2023-12-20T06:04:03;97492.78;;;5.24;100.00
50774;BME280;36745;48.544;8.918;2023-12-20T06:07:23;97490.41;;;5.29;100.00
50774;BME280;36745;48.544;8.918;2023-12-20T06:10:43;97498.69;;;5.19;100.00
50774;BME280;36745;48.544;8.918;2023-12-20T06:14:03;97509.97;;;5.24;100.00
50774;BME280;36745;48.544;8.918;2023-12-20T06:17:23;97501.03;;;5.20;100.00
50774;BME280;36745;48.544;8.918;2023-12-20T06:20:43;97499.81;;;5.25;100.00
50774;BME280;36745;48.544;8.918;2023-12-20T06:24:02;97501.47;;;5.08;100.00
50774;BME280;36745;48.544;8.918;2023-12-20T06:27:22;97508.53;;;5.05;100.00
50774;BME280;36745;48.544;8.918;2023-12-20T06:30:42;97505.13;;;4.84;100.00
50774;BME280;36745;48.544;8.918;2023-12-20T06:34:02;97505.59;;;4.64;100.00
50774;BME280;36745;48.544;8.918;2023-12-20T06:37:22;97508.75;;;4.59;100.00
50774;BME280;36745;48.544;8.918;2023-12-20T06:40:42;97516.16;;;4.59;100.00
50774;BME280;36745;48.544;8.918;2023-12-20T06:44:02;97526.72;;;4.57;100.00
50774;BME280;36745;48.544;8.918;2023-12-20T06:47:21;97529.06;;;4.58;100.00
50774;BME280;36745;48.544;8.918;2023-12-20T06:50:41;97529.81;;;4.55;100.00
50774;BME280;36745;48.544;8.918;2023-12-20T06:54:01;97524.34;;;4.70;100.00
50774;BME280;36745;48.544;8.918;2023-12-20T06:57:22;97530.13;;;4.79;100.00
50774;BME280;36745;48.544;8.918;2023-12-20T07:00:42;97538.34;;;4.72;100.00
50774;BME280;36745;48.544;8.918;2023-12-20T07:04:01;97547.72;;;4.71;100.00
50774;BME280;36745;48.544;8.918;2023-12-20T07:07:21;97559.41;;;4.75;100.00
50774;BME280;36745;48.544;8.918;2023-12-20T07:10:42;97551.59;;;4.77;100.00
50774;BME280;36745;48.544;8.918;2023-12-20T07:14:02;97558.59;;;4.85;100.00
50774;BME280;36745;48.544;8.918;2023-12-20T07:17:22;97560.94;;;4.83;100.00
50774;BME280;36745;48.544;8.918;2023-12-20T07:20:42;97555.84;;;4.88;100.00
50774;BME280;36745;48.544;8.918;2023-12-20T07:24:02;97559.38;;;4.82;100.00
50774;BME280;36745;48.544;8.918;2023-12-20T07:27:22;97565.19;;;4.87;100.00
50774;BME280;36745;48.544;8.918;2023-12-20T07:30:42;97570.25;;;4.96;100.00
50774;BME280;36745;48.544;8.918;2023-12-20T07:34:02;97581.94;;;5.00;100.00
50774;BME280;36745;48.544;8.918;2023-12-20T07:37:22;97583.91;;;4.96;100.00
50774;BME280;36745;48.544;8.918;2023-12-20T07:40:41;97594.78;;;5.03;100.00
50774;BME280;36745;48.544;8.918;2023-12-20T07:44:01;97597.56;;;4.96;100.00
50774;BME280;36745;48.544;8.918;2023-12-20T07:47:21;97599.16;;;4.90;100.00
50774;BME280;36745;48.544;8.918;2023-12-20T07:50:41;97601.13;;;4.86;100.00
50774;BME280;36745;48.544;8.918;2023-12-20T07:54:01;97603.06;;;4.82;100.00
50774;BME280;36745;48.544;8.918;2023-12-20T07:57:23;97608.16;;;4.83;100.00
50774;BME280;36745;48.544;8.918;2023-12-20T08:00:43;97599.97;;;4.80;100.00
50774;BME280;36745;48.544;8.918;2023-12-20T08:04:03;97606.19;;;4.84;100.00
50774;BME280;36745;48.544;8.918;2023-12-20T08:07:23;97614.75;;;4.89;100.00
50774;BME280;36745;48.544;8.918;2023-12-20T08:10:43;97621.78;;;4.94;100.00
50774;BME280;36745;48.544;8.918;2023-12-20T08:14:03;97609.25;;;5.07;100.00
50774;BME280;36745;48.544;8.918;2023-12-20T08:17:23;97618.63;;;4.99;100.00
50774;BME280;36745;48.544;8.918;2023-12-20T08:20:43;97618.22;;;5.04;100.00
50774;BME280;36745;48.544;8.918;2023-12-20T08:24:03;97612.31;;;5.16;100.00
50774;BME280;36745;48.544;8.918;2023-12-20T08:27:22;97613.06;;;5.20;100.00
50774;BME280;36745;48.544;8.918;2023-12-20T08:30:42;97609.88;;;5.39;100.00
50774;BME280;36745;48.544;8.918;2023-12-20T08:34:02;97612.97;;;5.45;100.00
50774;BME280;36745;48.544;8.918;2023-12-20T08:37:22;97623.53;;;5.39;100.00
50774;BME280;36745;48.544;8.918;2023-12-20T08:40:42;97631.31;;;5.44;100.00
50774;BME280;36745;48.544;8.918;2023-12-20T08:44:02;97629.75;;;5.43;100.00
50774;BME280;36745;48.544;8.918;2023-12-20T08:47:21;97635.59;;;5.45;100.00
50774;BME280;36745;48.544;8.918;2023-12-20T08:50:41;97632.44;;;5.54;100.00
50774;BME280;36745;48.544;8.918;2023-12-20T08:54:01;97649.63;;;5.51;100.00
50774;BME280;36745;48.544;8.918;2023-12-20T08:57:21;97659.00;;;5.54;100.00
50774;BME280;36745;48.544;8.918;2023-12-20T09:00:43;97670.31;;;5.56;100.00
50774;BME280;36745;48.544;8.918;2023-12-20T09:04:02;97673.44;;;5.54;100.00
50774;BME280;36745;48.544;8.918;2023-12-20T09:07:26;97667.22;;;5.46;100.00
50774;BME280;36745;48.544;8.918;2023-12-20T09:10:45;97669.19;;;5.42;100.00
50774;BME280;36745;48.544;8.918;2023-12-20T09:14:05;97676.41;;;5.01;100.00
50774;BME280;36745;48.544;8.918;2023-12-20T09:17:25;97675.66;;;4.90;100.00
50774;BME280;36745;48.544;8.918;2023-12-20T09:20:45;97670.94;;;5.01;100.00
50774;BME280;36745;48.544;8.918;2023-12-20T09:24:05;97669.38;;;4.96;100.00
50774;BME280;36745;48.544;8.918;2023-12-20T09:27:25;97672.84;;;5.11;100.00
50774;BME280;36745;48.544;8.918;2023-12-20T09:30:44;97668.53;;;5.17;100.00
50774;BME280;36745;48.544;8.918;2023-12-20T09:34:05;97670.09;;;5.15;100.00
50774;BME280;36745;48.544;8.918;2023-12-20T09:37:26;97677.16;;;4.98;100.00
50774;BME280;36745;48.544;8.918;2023-12-20T09:40:46;97674.06;;;4.96;100.00
50774;BME280;36745;48.544;8.918;2023-12-20T09:44:08;97679.91;;;5.01;100.00
50774;BME280;36745;48.544;8.918;2023-12-20T09:47:28;97681.06;;;5.04;100.00
50774;BME280;36745;48.544;8.918;2023-12-20T09:50:48;97681.81;;;5.15;100.00
50774;BME280;36745;48.544;8.918;2023-12-20T09:54:09;97678.63;;;5.31;100.00
50774;BME280;36745;48.544;8.918;2023-12-20T09:57:29;97677.38;;;5.46;100.00
50774;BME280;36745;48.544;8.918;2023-12-20T10:00:49;97687.06;;;5.65;100.00
50774;BME280;36745;48.544;8.918;2023-12-20T10:04:10;97687.03;;;5.72;100.00
50774;BME280;36745;48.544;8.918;2023-12-20T10:07:32;97685.06;;;5.76;100.00
50774;BME280;36745;48.544;8.918;2023-12-20T10:10:52;97680.38;;;5.73;99.54
50774;BME280;36745;48.544;8.918;2023-12-20T10:14:11;97678.41;;;5.77;98.57
50774;BME280;36745;48.544;8.918;2023-12-20T10:17:31;97677.63;;;5.73;98.02
50774;BME280;36745;48.544;8.918;2023-12-20T10:20:51;97680.03;;;5.64;96.47
50774;BME280;36745;48.544;8.918;2023-12-20T10:24:17;97672.28;;;5.52;95.19
50774;BME280;36745;48.544;8.918;2023-12-20T10:27:37;97668.41;;;5.45;94.66
50774;BME280;36745;48.544;8.918;2023-12-20T10:30:57;97664.53;;;5.43;94.36
50774;BME280;36745;48.544;8.918;2023-12-20T10:34:16;97653.56;;;5.46;94.88
50774;BME280;36745;48.544;8.918;2023-12-20T10:37:39;97645.25;;;5.64;94.07
50774;BME280;36745;48.544;8.918;2023-12-20T10:41:01;97638.56;;;5.76;94.95
50774;BME280;36745;48.544;8.918;2023-12-20T10:44:22;97644.00;;;5.83;94.03
50774;BME280;36745;48.544;8.918;2023-12-20T10:47:42;97648.66;;;5.86;93.97
50774;BME280;36745;48.544;8.918;2023-12-20T10:51:04;97644.66;;;6.01;93.75
50774;BME280;36745;48.544;8.918;2023-12-20T10:54:24;97636.88;;;5.96;93.09
50774;BME280;36745;48.544;8.918;2023-12-20T10:57:46;97642.84;;;5.77;90.18
50774;BME280;36745;48.544;8.918;2023-12-20T11:01:12;97640.66;;;5.51;90.36
50774;BME280;36745;48.544;8.918;2023-12-20T11:04:55;97643.44;;;5.43;88.51
50774;BME280;36745;48.544;8.918;2023-12-20T11:15:28;97643.09;;;5.34;88.90
50774;BME280;36745;48.544;8.918;2023-12-20T11:18:50;97638.44;;;5.24;87.87
50774;BME280;36745;48.544;8.918;2023-12-20T11:22:10;97634.09;;;5.30;88.55
50774;BME280;36745;48.544;8.918;2023-12-20T11:25:45;97634.16;;;5.23;87.02
50774;BME280;36745;48.544;8.918;2023-12-20T11:29:34;97625.66;;;5.00;85.60
50774;BME280;36745;48.544;8.918;2023-12-20T11:32:55;97631.53;;;4.91;85.53
50774;BME280;36745;48.544;8.918;2023-12-20T11:36:15;97636.56;;;5.03;84.15
50774;BME280;36745;48.544;8.918;2023-12-20T11:39:37;97629.91;;;5.12;84.87
50774;BME280;36745;48.544;8.918;2023-12-20T11:42:57;97623.16;;;5.30;84.99
50774;BME280;36745;48.544;8.918;2023-12-20T11:46:17;97605.94;;;5.40;85.14
50774;BME280;36745;48.544;8.918;2023-12-20T11:49:37;97621.56;;;5.43;85.06
50774;BME280;36745;48.544;8.918;2023-12-20T11:52:56;97630.06;;;5.56;85.50
50774;BME280;36745;48.544;8.918;2023-12-20T11:56:17;97639.91;;;5.43;84.61
50774;BME280;36745;48.544;8.918;2023-12-20T11:59:37;97629.44;;;5.34;84.39
50774;BME280;36745;48.544;8.918;2023-12-20T12:02:57;97628.94;;;5.46;84.80
50774;BME280;36745;48.544;8.918;2023-12-20T12:06:18;97625.50;;;5.35;83.33
50774;BME280;36745;48.544;8.918;2023-12-20T12:09:38;97617.69;;;5.37;83.38
50774;BME280;36745;48.544;8.918;2023-12-20T12:12:58;97615.81;;;5.20;82.76
50774;BME280;36745;48.544;8.918;2023-12-20T12:16:19;97618.53;;;5.20;83.31
50774;BME280;36745;48.544;8.918;2023-12-20T12:19:40;97611.16;;;5.17;82.07
50774;BME280;36745;48.544;8.918;2023-12-20T12:23:04;97618.50;;;5.24;83.19
50774;BME280;36745;48.544;8.918;2023-12-20T12:26:25;97609.91;;;5.32;82.75
50774;BME280;36745;48.544;8.918;2023-12-20T12:30:04;97598.88;;;5.46;82.69
50774;BME280;36745;48.544;8.918;2023-12-20T12:33:26;97597.66;;;5.55;82.75
50774;BME280;36745;48.544;8.918;2023-12-20T12:36:46;97589.00;;;5.67;82.95
50774;BME280;36745;48.544;8.918;2023-12-20T12:40:12;97589.75;;;5.67;82.36
50774;BME280;36745;48.544;8.918;2023-12-20T12:43:32;97587.78;;;5.68;80.75
50774;BME280;36745;48.544;8.918;2023-12-20T12:46:52;97594.44;;;5.70;81.48
50774;BME280;36745;48.544;8.918;2023-12-20T12:50:13;97598.31;;;5.73;80.12
50774;BME280;36745;48.544;8.918;2023-12-20T12:53:33;97592.97;;;5.52;79.70
50774;BME280;36745;48.544;8.918;2023-12-20T12:56:52;97593.00;;;5.48;79.70
50774;BME280;36745;48.544;8.918;2023-12-20T13:00:12;97589.22;;;5.90;79.51
50774;BME280;36745;48.544;8.918;2023-12-20T13:03:33;97600.25;;;6.31;79.85
50774;BME280;36745;48.544;8.918;2023-12-20T13:06:53;97600.59;;;6.37;78.58
50774;BME280;36745;48.544;8.918;2023-12-20T13:10:13;97589.81;;;6.15;76.44
50774;BME280;36745;48.544;8.918;2023-12-20T13:13:36;97581.38;;;6.78;77.82
50774;BME280;36745;48.544;8.918;2023-12-20T13:16:56;97577.97;;;7.61;77.19
50774;BME280;36745;48.544;8.918;2023-12-20T13:20:15;97577.66;;;7.25;73.80
50774;BME280;36745;48.544;8.918;2023-12-20T13:23:35;97574.25;;;6.84;73.28
50774;BME280;36745;48.544;8.918;2023-12-20T13:26:55;97572.16;;;6.61;74.34
50774;BME280;36745;48.544;8.918;2023-12-20T13:30:16;97583.13;;;6.61;73.34
50774;BME280;36745;48.544;8.918;2023-12-20T13:33:36;97585.63;;;6.45;74.36
50774;BME280;36745;48.544;8.918;2023-12-20T13:36:56;97588.81;;;6.40;74.33
50774;BME280;36745;48.544;8.918;2023-12-20T13:40:16;97592.47;;;6.22;73.73
50774;BME280;36745;48.544;8.918;2023-12-20T13:43:36;97597.50;;;6.31;75.16
50774;BME280;36745;48.544;8.918;2023-12-20T13:46:55;97599.13;;;6.21;74.45
50774;BME280;36745;48.544;8.918;2023-12-20T13:50:15;97591.25;;;6.27;75.04
50774;BME280;36745;48.544;8.918;2023-12-20T13:53:35;97575.50;;;6.42;75.54
50774;BME280;36745;48.544;8.918;2023-12-20T13:56:55;97581.19;;;6.20;74.24
50774;BME280;36745;48.544;8.918;2023-12-20T14:00:15;97587.00;;;6.26;74.40
50774;BME280;36745;48.544;8.918;2023-12-20T14:03:35;97595.44;;;5.94;73.63
50774;BME280;36745;48.544;8.918;2023-12-20T14:06:55;97593.66;;;5.70;74.87
50774;BME280;36745;48.544;8.918;2023-12-20T14:10:15;97612.09;;;5.59;74.99
50774;BME280;36745;48.544;8.918;2023-12-20T14:13:35;97612.06;;;5.66;75.60
50774;BME280;36745;48.544;8.918;2023-12-20T14:16:55;97601.91;;;5.63;76.27
50774;BME280;36745;48.544;8.918;2023-12-20T14:20:14;97586.34;;;5.53;76.48
50774;BME280;36745;48.544;8.918;2023-12-20T14:23:34;97569.53;;;5.54;76.66
50774;BME280;36745;48.544;8.918;2023-12-20T14:26:54;97569.91;;;5.60;77.00
50774;BME280;36745;48.544;8.918;2023-12-20T14:30:14;97575.31;;;5.67;77.19
50774;BME280;36745;48.544;8.918;2023-12-20T14:33:36;97569.16;;;5.56;77.62
50774;BME280;36745;48.544;8.918;2023-12-20T14:36:58;97562.88;;;5.59;78.29
50774;BME280;36745;48.544;8.918;2023-12-20T14:40:19;97568.44;;;5.44;78.79
50774;BME280;36745;48.544;8.918;2023-12-20T14:43:38;97572.31;;;5.47;79.19
50774;BME280;36745;48.544;8.918;2023-12-20T14:46:58;97578.94;;;5.49;79.79
50774;BME280;36745;48.544;8.918;2023-12-20T14:50:18;97578.66;;;5.33;80.16
50774;BME280;36745;48.544;8.918;2023-12-20T14:53:38;97565.78;;;5.30;81.51
50774;BME280;36745;48.544;8.918;2023-12-20T14:56:59;97570.56;;;5.12;81.87
50774;BME280;36745;48.544;8.918;2023-12-20T15:00:18;97567.47;;;5.03;82.73
50774;BME280;36745;48.544;8.918;2023-12-20T15:03:39;97555.41;;;4.93;83.17
50774;BME280;36745;48.544;8.918;2023-12-20T15:06:59;97563.97;;;5.06;84.02
50774;BME280;36745;48.544;8.918;2023-12-20T15:10:20;97573.69;;;5.11;83.82
50774;BME280;36745;48.544;8.918;2023-12-20T15:13:40;97579.91;;;5.15;84.04
50774;BME280;36745;48.544;8.918;2023-12-20T15:17:00;97577.22;;;5.04;83.65
50774;BME280;36745;48.544;8.918;2023-12-20T15:20:20;97574.16;;;4.95;84.29
50774;BME280;36745;48.544;8.918;2023-12-20T15:23:40;97578.03;;;5.01;84.19
50774;BME280;36745;48.544;8.918;2023-12-20T15:27:03;97576.53;;;4.89;84.96
50774;BME280;36745;48.544;8.918;2023-12-20T15:30:22;97578.88;;;4.84;84.85
50774;BME280;36745;48.544;8.918;2023-12-20T15:33:43;97565.63;;;4.79;85.36
50774;BME280;36745;48.544;8.918;2023-12-20T15:37:03;97571.09;;;4.75;86.29
50774;BME280;36745;48.544;8.918;2023-12-20T15:40:23;97575.00;;;4.71;85.98
50774;BME280;36745;48.544;8.918;2023-12-20T15:43:43;97562.97;;;4.57;86.79
50774;BME280;36745;48.544;8.918;2023-12-20T15:47:03;97578.97;;;4.55;87.21
50774;BME280;36745;48.544;8.918;2023-12-20T15:50:22;97570.75;;;4.66;87.20
50774;BME280;36745;48.544;8.918;2023-12-20T15:53:42;97578.13;;;4.73;86.81
50774;BME280;36745;48.544;8.918;2023-12-20T15:57:02;97573.88;;;4.54;87.39
50774;BME280;36745;48.544;8.918;2023-12-20T16:00:22;97576.97;;;4.67;87.67
50774;BME280;36745;48.544;8.918;2023-12-20T16:03:42;97563.31;;;4.74;87.65
50774;BME280;36745;48.544;8.918;2023-12-20T16:07:02;97571.56;;;4.56;87.50
50774;BME280;36745;48.544;8.918;2023-12-20T16:10:22;97569.63;;;4.53;87.83
50774;BME280;36745;48.544;8.918;2023-12-20T16:13:42;97569.25;;;4.47;88.21
50774;BME280;36745;48.544;8.918;2023-12-20T16:17:02;97564.56;;;4.44;88.52
50774;BME280;36745;48.544;8.918;2023-12-20T16:20:21;97561.06;;;4.47;88.22
50774;BME280;36745;48.544;8.918;2023-12-20T16:23:41;97564.19;;;4.39;88.91
50774;BME280;36745;48.544;8.918;2023-12-20T16:27:01;97567.31;;;4.48;89.23
50774;BME280;36745;48.544;8.918;2023-12-20T16:30:21;97550.19;;;4.30;89.77
50774;BME280;36745;48.544;8.918;2023-12-20T16:33:41;97568.09;;;4.41;89.58
50774;BME280;36745;48.544;8.918;2023-12-20T16:37:01;97585.22;;;4.52;89.61
50774;BME280;36745;48.544;8.918;2023-12-20T16:40:21;97568.84;;;4.45;89.71
50774;BME280;36745;48.544;8.918;2023-12-20T16:43:44;97563.81;;;4.40;89.84
50774;BME280;36745;48.544;8.918;2023-12-20T16:47:04;97558.69;;;4.49;89.78
50774;BME280;36745;48.544;8.918;2023-12-20T16:50:24;97559.50;;;4.46;89.41
50774;BME280;36745;48.544;8.918;2023-12-20T16:53:43;97547.41;;;4.47;89.71
50774;BME280;36745;48.544;8.918;2023-12-20T16:57:03;97553.25;;;4.39;90.16
50774;BME280;36745;48.544;8.918;2023-12-20T17:00:23;97563.38;;;4.52;89.90
50774;BME280;36745;48.544;8.918;2023-12-20T17:03:43;97570.00;;;4.58;89.89
50774;BME280;36745;48.544;8.918;2023-12-20T17:07:03;97579.75;;;4.52;90.12
50774;BME280;36745;48.544;8.918;2023-12-20T17:10:23;97586.78;;;4.57;89.46
50774;BME280;36745;48.544;8.918;2023-12-20T17:13:43;97593.78;;;4.54;89.54
50774;BME280;36745;48.544;8.918;2023-12-20T17:17:04;97591.44;;;4.56;90.26
50774;BME280;36745;48.544;8.918;2023-12-20T17:20:23;97591.03;;;4.61;89.79
50774;BME280;36745;48.544;8.918;2023-12-20T17:23:44;97605.06;;;4.71;89.63
50774;BME280;36745;48.544;8.918;2023-12-20T17:27:04;97587.06;;;4.84;89.57
50774;BME280;36745;48.544;8.918;2023-12-20T17:30:24;97587.13;;;4.73;89.52
50774;BME280;36745;48.544;8.918;2023-12-20T17:33:44;97580.44;;;4.85;89.46
50774;BME280;36745;48.544;8.918;2023-12-20T17:37:04;97591.78;;;4.73;89.44
50774;BME280;36745;48.544;8.918;2023-12-20T17:40:23;97601.97;;;4.69;89.51
50774;BME280;36745;48.544;8.918;2023-12-20T17:43:43;97589.50;;;4.64;89.75
50774;BME280;36745;48.544;8.918;2023-12-20T17:47:03;97593.03;;;4.50;90.40
50774;BME280;36745;48.544;8.918;2023-12-20T17:50:23;97589.13;;;4.51;90.45
50774;BME280;36745;48.544;8.918;2023-12-20T17:53:43;97587.56;;;4.50;90.59